Terminal Aerodrome Forecast
Issued by NWS

Home | Current Version | Previous Version | Text Only | Print | Product List | Glossary Off
Versions: 1 2 3 4 5 6 7 8 9 10 11 12 13 14 15 16

000
FTUS43 KGRB 250708 AAA
TAFCWA
TAF AMD
KCWA 250708Z 2507/2606 26005KT P6SM VCSH SCT018 BKN040
      TEMPO 2507/2509 BKN018
     FM250900 31006KT P6SM SCT015 BKN040
      TEMPO 2509/2512 3SM BR
     FM251500 34007KT P6SM FEW040 SCT200=

USA.gov is the U.S. government's official web portal to all federal, state and local government web resources and services.